sensor_id;sensor_type;location;lat;lon;timestamp;pressure;altitude;pressure_sealevel;temperature;humidity
30073;BME280;16897;52.422;13.678;2023-04-26T00:02:28;100970.38;;;9.12;43.65
30073;BME280;16897;52.422;13.678;2023-04-26T00:06:30;100972.84;;;9.15;43.76
30073;BME280;16897;52.422;13.678;2023-04-26T00:10:32;100988.56;;;9.13;43.86
30073;BME280;16897;52.422;13.678;2023-04-26T00:14:33;100949.94;;;8.83;43.91
30073;BME280;16897;52.422;13.678;2023-04-26T00:18:35;100982.91;;;9.03;43.88
30073;BME280;16897;52.422;13.678;2023-04-26T00:22:36;100978.16;;;8.93;43.88
30073;BME280;16897;52.422;13.678;2023-04-26T00:26:38;100989.88;;;9.03;43.80
30073;BME280;16897;52.422;13.678;2023-04-26T00:30:40;100979.84;;;8.94;43.82
30073;BME280;16897;52.422;13.678;2023-04-26T00:34:47;100992.13;;;8.92;43.94
30073;BME280;16897;52.422;13.678;2023-04-26T00:38:49;100970.13;;;8.78;43.94
30073;BME280;16897;52.422;13.678;2023-04-26T00:42:56;100946.50;;;8.62;43.71
30073;BME280;16897;52.422;13.678;2023-04-26T00:46:58;100980.59;;;8.77;43.82
30073;BME280;16897;52.422;13.678;2023-04-26T00:51:00;100998.69;;;8.80;44.12
30073;BME280;16897;52.422;13.678;2023-04-26T00:55:01;100985.28;;;8.69;43.83
30073;BME280;16897;52.422;13.678;2023-04-26T00:59:03;101001.28;;;8.80;43.93
30073;BME280;16897;52.422;13.678;2023-04-26T01:03:04;100980.16;;;8.67;43.91
30073;BME280;16897;52.422;13.678;2023-04-26T01:07:06;100992.13;;;8.71;43.81
30073;BME280;16897;52.422;13.678;2023-04-26T01:11:08;100998.16;;;8.72;44.03
30073;BME280;16897;52.422;13.678;2023-04-26T01:15:10;100988.22;;;8.61;44.04
30073;BME280;16897;52.422;13.678;2023-04-26T01:19:12;100961.53;;;8.35;44.11
30073;BME280;16897;52.422;13.678;2023-04-26T01:23:13;100958.00;;;8.36;44.03
30073;BME280;16897;52.422;13.678;2023-04-26T01:27:15;101005.91;;;8.53;43.88
30073;BME280;16897;52.422;13.678;2023-04-26T01:31:17;100958.66;;;8.21;43.86
30073;BME280;16897;52.422;13.678;2023-04-26T01:35:19;101014.78;;;8.49;44.01
30073;BME280;16897;52.422;13.678;2023-04-26T01:39:22;101005.69;;;8.37;43.97
30073;BME280;16897;52.422;13.678;2023-04-26T01:43:24;101016.00;;;8.40;44.21
30073;BME280;16897;52.422;13.678;2023-04-26T01:47:26;100967.00;;;8.07;44.17
30073;BME280;16897;52.422;13.678;2023-04-26T01:51:28;101005.22;;;8.27;44.00
30073;BME280;16897;52.422;13.678;2023-04-26T01:55:29;101032.56;;;8.37;43.98
30073;BME280;16897;52.422;13.678;2023-04-26T01:59:31;101017.19;;;8.31;44.01
30073;BME280;16897;52.422;13.678;2023-04-26T02:03:34;101025.78;;;8.33;44.08
30073;BME280;16897;52.422;13.678;2023-04-26T02:07:35;101012.25;;;8.25;44.21
30073;BME280;16897;52.422;13.678;2023-04-26T02:11:37;101024.47;;;8.23;44.01
30073;BME280;16897;52.422;13.678;2023-04-26T02:15:39;101021.28;;;8.16;44.24
30073;BME280;16897;52.422;13.678;2023-04-26T02:19:41;101017.03;;;8.14;44.08
30073;BME280;16897;52.422;13.678;2023-04-26T02:23:43;101017.09;;;8.12;44.07
30073;BME280;16897;52.422;13.678;2023-04-26T02:27:45;101027.75;;;8.06;44.13
30073;BME280;16897;52.422;13.678;2023-04-26T02:31:47;101016.63;;;8.03;44.32
30073;BME280;16897;52.422;13.678;2023-04-26T02:35:48;100979.63;;;7.74;44.21
30073;BME280;16897;52.422;13.678;2023-04-26T02:39:50;101022.97;;;7.95;44.21
30073;BME280;16897;52.422;13.678;2023-04-26T02:43:52;100963.91;;;7.55;44.41
30073;BME280;16897;52.422;13.678;2023-04-26T02:47:54;100993.69;;;7.68;44.21
30073;BME280;16897;52.422;13.678;2023-04-26T02:51:55;101021.75;;;7.82;44.29
30073;BME280;16897;52.422;13.678;2023-04-26T02:55:58;100977.59;;;7.59;44.28
30073;BME280;16897;52.422;13.678;2023-04-26T03:00:03;101006.66;;;7.70;44.46
30073;BME280;16897;52.422;13.678;2023-04-26T03:04:06;101023.56;;;7.80;44.34
30073;BME280;16897;52.422;13.678;2023-04-26T03:08:09;101025.44;;;7.76;44.32
30073;BME280;16897;52.422;13.678;2023-04-26T03:12:11;101014.78;;;7.61;44.44
30073;BME280;16897;52.422;13.678;2023-04-26T03:16:13;101028.34;;;7.69;44.47
30073;BME280;16897;52.422;13.678;2023-04-26T03:20:14;101012.25;;;7.59;44.40
30073;BME280;16897;52.422;13.678;2023-04-26T03:24:16;101025.84;;;7.66;44.52
30073;BME280;16897;52.422;13.678;2023-04-26T03:28:18;101030.13;;;7.67;44.38
30073;BME280;16897;52.422;13.678;2023-04-26T03:32:19;101043.22;;;7.65;44.52
30073;BME280;16897;52.422;13.678;2023-04-26T03:36:21;101000.13;;;7.36;44.53
30073;BME280;16897;52.422;13.678;2023-04-26T03:40:23;101043.25;;;7.64;44.37
30073;BME280;16897;52.422;13.678;2023-04-26T03:44:25;101030.78;;;7.50;44.44
30073;BME280;16897;52.422;13.678;2023-04-26T03:48:26;101048.84;;;7.53;44.47
30073;BME280;16897;52.422;13.678;2023-04-26T03:52:28;101049.47;;;7.60;44.56
30073;BME280;16897;52.422;13.678;2023-04-26T03:56:31;101040.28;;;7.51;44.50
30073;BME280;16897;52.422;13.678;2023-04-26T04:00:36;101008.19;;;7.28;44.65
30073;BME280;16897;52.422;13.678;2023-04-26T04:04:38;101036.94;;;7.47;44.49
30073;BME280;16897;52.422;13.678;2023-04-26T04:08:40;101058.28;;;7.56;44.58
30073;BME280;16897;52.422;13.678;2023-04-26T04:12:41;101058.53;;;7.49;44.54
30073;BME280;16897;52.422;13.678;2023-04-26T04:16:43;101049.16;;;7.45;44.53
30073;BME280;16897;52.422;13.678;2023-04-26T04:20:46;101061.06;;;7.51;44.52
30073;BME280;16897;52.422;13.678;2023-04-26T04:24:48;101007.91;;;7.13;44.58
30073;BME280;16897;52.422;13.678;2023-04-26T04:28:53;101046.16;;;7.32;44.82
30073;BME280;16897;52.422;13.678;2023-04-26T04:32:55;101074.34;;;7.43;44.60
30073;BME280;16897;52.422;13.678;2023-04-26T04:36:59;101076.09;;;7.43;44.68
30073;BME280;16897;52.422;13.678;2023-04-26T04:41:01;101054.00;;;7.31;44.86
30073;BME280;16897;52.422;13.678;2023-04-26T04:45:03;101088.13;;;7.45;44.67
30073;BME280;16897;52.422;13.678;2023-04-26T04:49:07;101062.84;;;7.25;44.74
30073;BME280;16897;52.422;13.678;2023-04-26T04:53:12;101104.63;;;7.44;44.88
30073;BME280;16897;52.422;13.678;2023-04-26T04:57:14;101094.28;;;7.43;44.96
30073;BME280;16897;52.422;13.678;2023-04-26T05:01:19;101049.38;;;7.16;44.86
30073;BME280;16897;52.422;13.678;2023-04-26T05:05:25;101100.44;;;7.40;45.03
30073;BME280;16897;52.422;13.678;2023-04-26T05:09:27;101091.97;;;7.35;44.99
30073;BME280;16897;52.422;13.678;2023-04-26T05:13:29;101091.13;;;7.35;44.80
30073;BME280;16897;52.422;13.678;2023-04-26T05:17:32;101083.31;;;7.35;44.85
30073;BME280;16897;52.422;13.678;2023-04-26T05:21:38;101089.28;;;7.37;45.11
30073;BME280;16897;52.422;13.678;2023-04-26T05:25:41;101122.41;;;7.55;45.04
30073;BME280;16897;52.422;13.678;2023-04-26T05:30:12;101117.06;;;7.60;44.99
30073;BME280;16897;52.422;13.678;2023-04-26T05:34:40;101125.53;;;7.65;45.15
30073;BME280;16897;52.422;13.678;2023-04-26T05:38:44;101107.75;;;7.54;44.89
30073;BME280;16897;52.422;13.678;2023-04-26T05:42:46;101120.34;;;7.65;45.14
30073;BME280;16897;52.422;13.678;2023-04-26T05:46:48;101118.41;;;7.70;44.97
30073;BME280;16897;52.422;13.678;2023-04-26T05:50:50;101148.31;;;7.82;45.11
30073;BME280;16897;52.422;13.678;2023-04-26T05:54:52;101132.94;;;7.75;45.26
30073;BME280;16897;52.422;13.678;2023-04-26T05:58:53;101130.81;;;7.85;45.20
30073;BME280;16897;52.422;13.678;2023-04-26T06:02:55;101129.53;;;7.97;45.34
30073;BME280;16897;52.422;13.678;2023-04-26T06:06:57;101119.06;;;7.98;45.38
30073;BME280;16897;52.422;13.678;2023-04-26T06:11:01;101133.00;;;8.19;45.22
30073;BME280;16897;52.422;13.678;2023-04-26T06:15:03;101154.06;;;8.35;45.16
30073;BME280;16897;52.422;13.678;2023-04-26T06:19:06;101141.84;;;8.37;45.19
30073;BME280;16897;52.422;13.678;2023-04-26T06:23:08;101112.44;;;8.35;45.36
30073;BME280;16897;52.422;13.678;2023-04-26T06:27:10;101136.94;;;8.53;45.41
30073;BME280;16897;52.422;13.678;2023-04-26T06:31:15;101133.16;;;8.60;45.26
30073;BME280;16897;52.422;13.678;2023-04-26T06:35:17;101132.72;;;8.71;45.45
30073;BME280;16897;52.422;13.678;2023-04-26T06:39:18;101137.56;;;8.80;45.42
30073;BME280;16897;52.422;13.678;2023-04-26T06:43:20;101139.97;;;8.85;45.27
30073;BME280;16897;52.422;13.678;2023-04-26T06:47:31;101124.53;;;8.80;45.43
30073;BME280;16897;52.422;13.678;2023-04-26T06:51:32;101136.78;;;8.99;45.44
30073;BME280;16897;52.422;13.678;2023-04-26T06:55:34;101097.50;;;8.83;45.48
30073;BME280;16897;52.422;13.678;2023-04-26T06:59:35;101156.66;;;9.22;45.44
30073;BME280;16897;52.422;13.678;2023-04-26T07:03:37;101152.81;;;9.30;45.41
30073;BME280;16897;52.422;13.678;2023-04-26T07:07:42;101140.63;;;9.31;45.42
30073;BME280;16897;52.422;13.678;2023-04-26T07:11:45;101150.44;;;9.45;45.48
30073;BME280;16897;52.422;13.678;2023-04-26T07:15:47;101150.94;;;9.53;45.38
30073;BME280;16897;52.422;13.678;2023-04-26T07:19:49;101168.63;;;9.67;45.43
30073;BME280;16897;52.422;13.678;2023-04-26T07:23:54;101149.28;;;9.71;45.46
30073;BME280;16897;52.422;13.678;2023-04-26T07:27:56;101149.16;;;9.74;45.49
30073;BME280;16897;52.422;13.678;2023-04-26T07:31:57;101163.69;;;9.98;45.57
30073;BME280;16897;52.422;13.678;2023-04-26T07:35:59;101164.91;;;10.10;45.37
30073;BME280;16897;52.422;13.678;2023-04-26T07:40:02;101166.16;;;10.20;45.55
30073;BME280;16897;52.422;13.678;2023-04-26T07:44:05;101140.19;;;10.17;45.44
30073;BME280;16897;52.422;13.678;2023-04-26T07:48:07;101154.41;;;10.31;45.65
30073;BME280;16897;52.422;13.678;2023-04-26T07:52:08;101163.28;;;10.46;45.52
30073;BME280;16897;52.422;13.678;2023-04-26T07:56:10;101172.91;;;10.62;45.49
30073;BME280;16897;52.422;13.678;2023-04-26T08:00:12;101146.81;;;10.62;45.67
30073;BME280;16897;52.422;13.678;2023-04-26T08:04:14;101176.00;;;10.88;45.57
30073;BME280;16897;52.422;13.678;2023-04-26T08:08:15;101186.81;;;10.99;45.49
30073;BME280;16897;52.422;13.678;2023-04-26T08:12:17;101157.44;;;10.94;45.42
30073;BME280;16897;52.422;13.678;2023-04-26T08:16:19;101143.13;;;10.84;45.18
30073;BME280;16897;52.422;13.678;2023-04-26T08:20:21;101124.22;;;10.79;45.31
30073;BME280;16897;52.422;13.678;2023-04-26T08:24:22;101120.84;;;10.77;45.33
30073;BME280;16897;52.422;13.678;2023-04-26T08:28:24;101167.44;;;11.21;45.39
30073;BME280;16897;52.422;13.678;2023-04-26T08:32:26;101174.88;;;11.28;45.33
30073;BME280;16897;52.422;13.678;2023-04-26T08:36:27;101177.25;;;11.33;45.22
30073;BME280;16897;52.422;13.678;2023-04-26T08:40:29;101157.09;;;11.35;45.34
30073;BME280;16897;52.422;13.678;2023-04-26T08:44:33;101163.00;;;11.56;45.54
30073;BME280;16897;52.422;13.678;2023-04-26T08:48:35;101177.19;;;11.68;45.24
30073;BME280;16897;52.422;13.678;2023-04-26T08:52:37;101163.84;;;11.57;45.30
30073;BME280;16897;52.422;13.678;2023-04-26T08:56:41;101195.13;;;11.76;45.16
30073;BME280;16897;52.422;13.678;2023-04-26T09:00:44;101170.75;;;11.58;45.17
30073;BME280;16897;52.422;13.678;2023-04-26T09:04:47;101168.25;;;11.56;45.17
30073;BME280;16897;52.422;13.678;2023-04-26T09:08:49;101169.69;;;11.62;45.26
30073;BME280;16897;52.422;13.678;2023-04-26T09:12:53;101183.72;;;11.77;45.36
30073;BME280;16897;52.422;13.678;2023-04-26T09:16:55;101203.41;;;11.84;45.29
30073;BME280;16897;52.422;13.678;2023-04-26T09:21:05;101200.13;;;11.80;45.23
30073;BME280;16897;52.422;13.678;2023-04-26T09:25:07;101189.94;;;11.74;44.98
30073;BME280;16897;52.422;13.678;2023-04-26T09:29:16;101197.63;;;11.77;45.16
30073;BME280;16897;52.422;13.678;2023-04-26T09:33:18;101194.13;;;11.78;45.22
30073;BME280;16897;52.422;13.678;2023-04-26T09:37:19;101182.34;;;11.87;45.26
30073;BME280;16897;52.422;13.678;2023-04-26T09:41:21;101168.34;;;12.04;45.31
30073;BME280;16897;52.422;13.678;2023-04-26T09:45:23;101185.84;;;12.19;45.03
30073;BME280;16897;52.422;13.678;2023-04-26T09:49:26;101173.69;;;12.18;45.16
30073;BME280;16897;52.422;13.678;2023-04-26T09:53:29;101192.00;;;12.34;45.04
30073;BME280;16897;52.422;13.678;2023-04-26T09:57:31;101178.16;;;12.32;45.09
30073;BME280;16897;52.422;13.678;2023-04-26T10:01:33;101179.84;;;12.49;45.01
30073;BME280;16897;52.422;13.678;2023-04-26T10:05:35;101193.75;;;12.65;44.85
30073;BME280;16897;52.422;13.678;2023-04-26T10:09:37;101188.53;;;12.65;45.09
30073;BME280;16897;52.422;13.678;2023-04-26T10:13:40;101181.94;;;12.58;44.92
30073;BME280;16897;52.422;13.678;2023-04-26T10:17:44;101188.44;;;12.67;45.01
30073;BME280;16897;52.422;13.678;2023-04-26T10:21:46;101187.38;;;12.85;44.90
30073;BME280;16897;52.422;13.678;2023-04-26T10:25:49;101195.81;;;12.90;44.80
30073;BME280;16897;52.422;13.678;2023-04-26T10:34:18;101194.69;;;13.10;44.82
30073;BME280;16897;52.422;13.678;2023-04-26T10:38:20;101172.38;;;13.03;44.77
30073;BME280;16897;52.422;13.678;2023-04-26T10:42:26;101186.84;;;13.10;44.68
30073;BME280;16897;52.422;13.678;2023-04-26T10:46:38;101185.88;;;13.11;44.85
30073;BME280;16897;52.422;13.678;2023-04-26T10:55:05;101161.72;;;13.06;44.70
30073;BME280;16897;52.422;13.678;2023-04-26T10:59:07;101192.34;;;13.36;44.77
30073;BME280;16897;52.422;13.678;2023-04-26T11:03:09;101177.09;;;13.42;44.58
30073;BME280;16897;52.422;13.678;2023-04-26T11:07:12;101196.09;;;13.46;44.48
30073;BME280;16897;52.422;13.678;2023-04-26T11:11:14;101196.47;;;13.40;44.41
30073;BME280;16897;52.422;13.678;2023-04-26T11:15:17;101200.41;;;13.33;44.48
30073;BME280;16897;52.422;13.678;2023-04-26T11:19:18;101171.81;;;13.12;44.39
30073;BME280;16897;52.422;13.678;2023-04-26T11:23:21;101187.41;;;13.15;44.37
30073;BME280;16897;52.422;13.678;2023-04-26T11:27:22;101208.78;;;13.23;44.25
30073;BME280;16897;52.422;13.678;2023-04-26T11:31:29;101198.63;;;13.17;44.28
30073;BME280;16897;52.422;13.678;2023-04-26T11:35:34;101194.41;;;13.15;44.29
30073;BME280;16897;52.422;13.678;2023-04-26T11:39:36;101209.22;;;13.16;44.19
30073;BME280;16897;52.422;13.678;2023-04-26T11:43:38;101175.00;;;13.03;44.28
30073;BME280;16897;52.422;13.678;2023-04-26T11:47:40;101178.81;;;12.97;44.25
30073;BME280;16897;52.422;13.678;2023-04-26T11:51:45;101193.91;;;12.94;44.11
30073;BME280;16897;52.422;13.678;2023-04-26T11:55:48;101200.34;;;12.88;44.12
30073;BME280;16897;52.422;13.678;2023-04-26T11:59:51;101208.84;;;12.92;44.17
30073;BME280;16897;52.422;13.678;2023-04-26T12:03:57;101197.13;;;12.83;44.12
30073;BME280;16897;52.422;13.678;2023-04-26T12:07:59;101196.41;;;12.95;44.16
30073;BME280;16897;52.422;13.678;2023-04-26T12:12:02;101212.38;;;13.06;44.12
30073;BME280;16897;52.422;13.678;2023-04-26T12:16:07;101208.78;;;13.23;44.04
30073;BME280;16897;52.422;13.678;2023-04-26T12:20:12;101229.50;;;13.28;43.81
30073;BME280;16897;52.422;13.678;2023-04-26T12:24:25;101226.19;;;13.24;44.00
30073;BME280;16897;52.422;13.678;2023-04-26T12:28:27;101215.88;;;13.21;43.96
30073;BME280;16897;52.422;13.678;2023-04-26T12:32:28;101222.53;;;13.13;43.82
30073;BME280;16897;52.422;13.678;2023-04-26T12:36:30;101221.81;;;13.09;43.90
30073;BME280;16897;52.422;13.678;2023-04-26T12:40:31;101209.63;;;12.94;43.74
30073;BME280;16897;52.422;13.678;2023-04-26T12:44:33;101208.69;;;12.95;43.85
30073;BME280;16897;52.422;13.678;2023-04-26T12:48:35;101229.88;;;13.06;43.90
30073;BME280;16897;52.422;13.678;2023-04-26T12:52:39;101223.72;;;13.07;43.87
30073;BME280;16897;52.422;13.678;2023-04-26T12:56:40;101171.19;;;12.78;43.87
30073;BME280;16897;52.422;13.678;2023-04-26T13:00:44;101204.59;;;13.05;43.75
30073;BME280;16897;52.422;13.678;2023-04-26T13:04:46;101214.66;;;13.13;43.79
30073;BME280;16897;52.422;13.678;2023-04-26T13:08:47;101209.28;;;13.14;43.63
30073;BME280;16897;52.422;13.678;2023-04-26T13:12:49;101230.09;;;13.17;43.66
30073;BME280;16897;52.422;13.678;2023-04-26T13:16:52;101245.66;;;13.20;43.69
30073;BME280;16897;52.422;13.678;2023-04-26T13:20:53;101242.13;;;13.21;43.75
30073;BME280;16897;52.422;13.678;2023-04-26T13:24:55;101219.78;;;13.14;43.67
30073;BME280;16897;52.422;13.678;2023-04-26T13:28:56;101204.16;;;13.13;43.56
30073;BME280;16897;52.422;13.678;2023-04-26T13:32:58;101221.38;;;13.33;43.69
30073;BME280;16897;52.422;13.678;2023-04-26T13:37:00;101215.75;;;13.39;43.65
30073;BME280;16897;52.422;13.678;2023-04-26T13:41:01;101220.03;;;13.56;43.66
30073;BME280;16897;52.422;13.678;2023-04-26T13:45:03;101199.88;;;13.56;43.49
30073;BME280;16897;52.422;13.678;2023-04-26T13:49:09;101210.38;;;13.70;43.58
30073;BME280;16897;52.422;13.678;2023-04-26T13:53:11;101217.13;;;13.75;43.54
30073;BME280;16897;52.422;13.678;2023-04-26T13:57:12;101211.03;;;13.74;43.48
30073;BME280;16897;52.422;13.678;2023-04-26T14:01:14;101178.88;;;13.56;43.47
30073;BME280;16897;52.422;13.678;2023-04-26T14:05:15;101220.88;;;13.85;43.49
30073;BME280;16897;52.422;13.678;2023-04-26T14:09:18;101221.75;;;13.85;43.37
30073;BME280;16897;52.422;13.678;2023-04-26T14:13:20;101209.06;;;13.78;43.32
30073;BME280;16897;52.422;13.678;2023-04-26T14:17:21;101228.84;;;13.83;43.23
30073;BME280;16897;52.422;13.678;2023-04-26T14:21:23;101228.38;;;13.77;43.29
30073;BME280;16897;52.422;13.678;2023-04-26T14:25:24;101240.56;;;13.78;43.08
30073;BME280;16897;52.422;13.678;2023-04-26T14:29:27;101236.41;;;13.59;43.05
30073;BME280;16897;52.422;13.678;2023-04-26T14:33:28;101255.63;;;13.60;43.30
30073;BME280;16897;52.422;13.678;2023-04-26T14:37:30;101251.66;;;13.53;43.22
30073;BME280;16897;52.422;13.678;2023-04-26T14:41:31;101243.41;;;13.44;43.18
30073;BME280;16897;52.422;13.678;2023-04-26T14:45:33;101214.88;;;13.24;43.21
30073;BME280;16897;52.422;13.678;2023-04-26T14:49:34;101251.00;;;13.49;43.20
30073;BME280;16897;52.422;13.678;2023-04-26T14:53:36;101233.94;;;13.42;43.12
30073;BME280;16897;52.422;13.678;2023-04-26T14:57:39;101255.44;;;13.48;43.13
30073;BME280;16897;52.422;13.678;2023-04-26T15:01:41;101240.78;;;13.44;43.08
30073;BME280;16897;52.422;13.678;2023-04-26T15:05:43;101237.91;;;13.49;43.14
30073;BME280;16897;52.422;13.678;2023-04-26T15:09:44;101248.03;;;13.55;43.06
30073;BME280;16897;52.422;13.678;2023-04-26T15:13:46;101235.28;;;13.49;43.00
30073;BME280;16897;52.422;13.678;2023-04-26T15:17:48;101253.84;;;13.60;42.97
30073;BME280;16897;52.422;13.678;2023-04-26T15:21:49;101249.72;;;13.56;42.95
30073;BME280;16897;52.422;13.678;2023-04-26T15:25:51;101220.16;;;13.38;43.02
30073;BME280;16897;52.422;13.678;2023-04-26T15:29:52;101252.88;;;13.47;42.96
30073;BME280;16897;52.422;13.678;2023-04-26T15:33:54;101259.91;;;13.46;42.97
30073;BME280;16897;52.422;13.678;2023-04-26T15:37:56;101260.28;;;13.40;42.98
30073;BME280;16897;52.422;13.678;2023-04-26T15:41:57;101228.78;;;13.26;42.95
30073;BME280;16897;52.422;13.678;2023-04-26T15:45:59;101256.13;;;13.36;42.83
30073;BME280;16897;52.422;13.678;2023-04-26T15:50:02;101250.03;;;13.36;42.81
30073;BME280;16897;52.422;13.678;2023-04-26T15:54:06;101244.81;;;13.36;42.71
30073;BME280;16897;52.422;13.678;2023-04-26T15:58:08;101242.09;;;13.37;42.89
30073;BME280;16897;52.422;13.678;2023-04-26T16:02:09;101262.13;;;13.38;42.78
30073;BME280;16897;52.422;13.678;2023-04-26T16:06:11;101247.53;;;13.34;42.82
30073;BME280;16897;52.422;13.678;2023-04-26T16:10:12;101240.94;;;13.27;42.78
30073;BME280;16897;52.422;13.678;2023-04-26T16:14:14;101240.94;;;13.27;42.67
30073;BME280;16897;52.422;13.678;2023-04-26T16:18:15;101249.75;;;13.26;42.68
30073;BME280;16897;52.422;13.678;2023-04-26T16:22:17;101241.28;;;13.21;42.78
30073;BME280;16897;52.422;13.678;2023-04-26T16:26:19;101234.75;;;13.12;42.76
30073;BME280;16897;52.422;13.678;2023-04-26T16:30:20;101235.63;;;13.13;42.83
30073;BME280;16897;52.422;13.678;2023-04-26T16:34:22;101249.13;;;13.21;42.66
30073;BME280;16897;52.422;13.678;2023-04-26T16:38:24;101243.22;;;13.17;42.75
30073;BME280;16897;52.422;13.678;2023-04-26T16:42:25;101238.06;;;13.16;42.64
30073;BME280;16897;52.422;13.678;2023-04-26T16:46:27;101258.94;;;13.17;42.79
30073;BME280;16897;52.422;13.678;2023-04-26T16:50:28;101242.06;;;13.07;42.52
30073;BME280;16897;52.422;13.678;2023-04-26T16:54:30;101255.91;;;13.09;42.61
30073;BME280;16897;52.422;13.678;2023-04-26T16:58:31;101270.81;;;13.09;42.62
30073;BME280;16897;52.422;13.678;2023-04-26T17:02:33;101269.38;;;13.03;42.62
30073;BME280;16897;52.422;13.678;2023-04-26T17:06:35;101262.66;;;12.99;42.62
30073;BME280;16897;52.422;13.678;2023-04-26T17:10:36;101262.78;;;12.96;42.52
30073;BME280;16897;52.422;13.678;2023-04-26T17:14:38;101273.88;;;13.01;42.61
30073;BME280;16897;52.422;13.678;2023-04-26T17:18:41;101271.53;;;12.96;42.51
30073;BME280;16897;52.422;13.678;2023-04-26T17:22:43;101250.22;;;12.87;42.57
30073;BME280;16897;52.422;13.678;2023-04-26T17:26:45;101268.97;;;12.95;42.53
30073;BME280;16897;52.422;13.678;2023-04-26T17:30:47;101264.16;;;12.87;42.50
30073;BME280;16897;52.422;13.678;2023-04-26T17:34:48;101274.47;;;12.90;42.56
30073;BME280;16897;52.422;13.678;2023-04-26T17:38:50;101222.00;;;12.60;42.50
30073;BME280;16897;52.422;13.678;2023-04-26T17:42:51;101278.78;;;12.91;42.48
30073;BME280;16897;52.422;13.678;2023-04-26T17:46:53;101271.94;;;12.89;42.44
30073;BME280;16897;52.422;13.678;2023-04-26T17:50:55;101270.16;;;12.89;42.52
30073;BME280;16897;52.422;13.678;2023-04-26T17:54:57;101282.44;;;12.89;42.53
30073;BME280;16897;52.422;13.678;2023-04-26T17:58:58;101287.69;;;12.89;42.49
30073;BME280;16897;52.422;13.678;2023-04-26T18:03:00;101281.25;;;12.78;42.48
30073;BME280;16897;52.422;13.678;2023-04-26T18:07:04;101292.22;;;12.85;42.42
30073;BME280;16897;52.422;13.678;2023-04-26T18:11:07;101299.34;;;12.83;42.41
30073;BME280;16897;52.422;13.678;2023-04-26T18:15:08;101300.53;;;12.77;42.41
30073;BME280;16897;52.422;13.678;2023-04-26T18:19:10;101298.22;;;12.71;42.42
30073;BME280;16897;52.422;13.678;2023-04-26T18:23:11;101279.88;;;12.55;42.41
30073;BME280;16897;52.422;13.678;2023-04-26T18:27:12;101305.94;;;12.58;42.26
30073;BME280;16897;52.422;13.678;2023-04-26T18:31:14;101320.53;;;12.62;42.42
30073;BME280;16897;52.422;13.678;2023-04-26T18:35:16;101326.97;;;12.57;42.34
30073;BME280;16897;52.422;13.678;2023-04-26T18:39:17;101322.38;;;12.45;42.28
30073;BME280;16897;52.422;13.678;2023-04-26T18:43:18;101328.38;;;12.47;42.28
30073;BME280;16897;52.422;13.678;2023-04-26T18:47:20;101306.38;;;12.33;42.37
30073;BME280;16897;52.422;13.678;2023-04-26T18:51:21;101321.25;;;12.33;42.27
30073;BME280;16897;52.422;13.678;2023-04-26T18:55:22;101338.53;;;12.37;42.23
30073;BME280;16897;52.422;13.678;2023-04-26T18:59:25;101343.66;;;12.38;42.20
30073;BME280;16897;52.422;13.678;2023-04-26T19:03:27;101334.34;;;12.33;42.33
30073;BME280;16897;52.422;13.678;2023-04-26T19:07:29;101325.28;;;12.23;42.12
30073;BME280;16897;52.422;13.678;2023-04-26T19:11:30;101338.31;;;12.24;42.16
30073;BME280;16897;52.422;13.678;2023-04-26T19:15:32;101336.75;;;12.20;42.21
30073;BME280;16897;52.422;13.678;2023-04-26T19:19:33;101317.66;;;12.02;42.16
30073;BME280;16897;52.422;13.678;2023-04-26T19:23:35;101355.72;;;12.25;42.23
30073;BME280;16897;52.422;13.678;2023-04-26T19:27:37;101356.63;;;12.24;42.35
30073;BME280;16897;52.422;13.678;2023-04-26T19:31:39;101307.63;;;11.93;42.32
30073;BME280;16897;52.422;13.678;2023-04-26T19:35:40;101352.63;;;12.17;42.07
30073;BME280;16897;52.422;13.678;2023-04-26T19:39:42;101352.03;;;12.12;42.29
30073;BME280;16897;52.422;13.678;2023-04-26T19:43:44;101361.88;;;12.07;42.23
30073;BME280;16897;52.422;13.678;2023-04-26T19:47:45;101362.97;;;12.03;42.21
30073;BME280;16897;52.422;13.678;2023-04-26T19:51:51;101340.66;;;11.78;42.14
30073;BME280;16897;52.422;13.678;2023-04-26T19:55:52;101357.72;;;11.85;42.11
30073;BME280;16897;52.422;13.678;2023-04-26T19:59:53;101369.81;;;11.88;42.14
30073;BME280;16897;52.422;13.678;2023-04-26T20:03:55;101359.34;;;11.70;42.08
30073;BME280;16897;52.422;13.678;2023-04-26T20:07:56;101367.41;;;11.66;42.08
30073;BME280;16897;52.422;13.678;2023-04-26T20:11:59;101339.84;;;11.41;42.13
30073;BME280;16897;52.422;13.678;2023-04-26T20:16:00;101379.75;;;11.64;42.24
30073;BME280;16897;52.422;13.678;2023-04-26T20:20:01;101378.47;;;11.54;42.17
30073;BME280;16897;52.422;13.678;2023-04-26T20:24:04;101386.41;;;11.52;42.26
30073;BME280;16897;52.422;13.678;2023-04-26T20:28:06;101370.59;;;11.36;42.31
30073;BME280;16897;52.422;13.678;2023-04-26T20:32:08;101368.34;;;11.28;42.29
30073;BME280;16897;52.422;13.678;2023-04-26T20:36:10;101374.66;;;11.24;42.08
30073;BME280;16897;52.422;13.678;2023-04-26T20:40:11;101372.19;;;11.21;42.29
30073;BME280;16897;52.422;13.678;2023-04-26T20:44:13;101391.19;;;11.25;42.30
30073;BME280;16897;52.422;13.678;2023-04-26T20:48:15;101376.28;;;11.08;42.28
30073;BME280;16897;52.422;13.678;2023-04-26T20:52:16;101375.50;;;11.06;42.17
30073;BME280;16897;52.422;13.678;2023-04-26T20:56:17;101382.50;;;11.05;42.40
30073;BME280;16897;52.422;13.678;2023-04-26T21:00:19;101398.03;;;11.08;42.29
30073;BME280;16897;52.422;13.678;2023-04-26T21:04:20;101391.41;;;11.01;42.24